Flinterborg — PHPH — position and weather

sailwx.info

Track history (hours):
 
Tides and Currents Weather Stations Pressure Air Temp Water Temp Dewpoint Dewpoint Depression Visibility Wind Speed Wind Dir Waves Ship Positions

Flinterborg

Last reported at 2017-Aug-20 01:42 UTC. Time now 2017-Aug-20 04:06 UTC.
Position N 53°33' W 003°53'.

Length 111 m; draft 3.8 m.

Type: Ship. MMSI: 245433000.

Date/timePositionNaut miles runAvg speedWind from/ knotsBaromVisibWave heightAir tempDewpointWater temp
2017-Aug-20 01:42N 53°33' W 003°53'312.3
2017-Aug-20 01:29N 53°33' W 003°49'612.2
2017-Aug-20 00:59N 53°33' W 003°39'612.2
2017-Aug-20 00:29N 53°33' W 003°28'612.3
2017-Aug-19 23:59N 53°32' W 003°18'5 9.1
2017-Aug-19 23:26N 53°32' W 003°10'612.6
2017-Aug-19 22:59N 53°28' W 003°03'713.6
2017-Aug-19 22:30N 53°22' W 002°58'3 5.2
2017-Aug-19 21:59N 53°19' W 002°57'1 2.7
2017-Aug-19 21:30N 53°18' W 002°55'3 5.0
2017-Aug-19 21:00N 53°17' W 002°52'3 5.7
2017-Aug-19 20:27N 53°18' W 002°47'2 5.2
2017-Aug-19 19:58N 53°20' W 002°45'0 0.1
2017-Aug-19 19:28N 53°20' W 002°45'0 0.0
2017-Aug-19 11:09N 53°20' W 002°45'0 0.0
2017-Aug-19 10:42N 53°20' W 002°45'0 0.0
2017-Aug-19 06:49N 53°20' W 002°45'0 0.0
2017-Aug-19 00:59N 53°20' W 002°45'0 0.0
2017-Aug-18 23:10N 53°20' W 002°45'0 0.0
2017-Aug-18 20:15N 53°20' W 002°45'0 0.0
2017-Aug-18 11:47N 53°20' W 002°45'0 0.0
2017-Aug-18 10:35N 53°20' W 002°45'0 0.0
2017-Aug-18 10:14N 53°20' W 002°45'0 0.0
2017-Aug-18 05:39N 53°20' W 002°45'0 0.0
2017-Aug-18 01:52N 53°20' W 002°45'0 0.0
2017-Aug-17 13:16N 53°20' W 002°45'0 0.0
2017-Aug-17 12:40N 53°20' W 002°45'0 0.0
2017-Aug-17 12:25N 53°20' W 002°45'0 0.0
2017-Aug-17 11:52N 53°20' W 002°45'0 0.0
2017-Aug-17 10:15N 53°20' W 002°45'0 0.0
2017-Aug-16 23:56N 53°20' W 002°45'0 0.0
2017-Aug-16 14:16N 53°20' W 002°45'0 0.2
2017-Aug-16 13:42N 53°20' W 002°45'0 0.1
2017-Aug-16 13:19N 53°20' W 002°45'0 0.0
2017-Aug-16 09:24N 53°20' W 002°45'0 0.0
2017-Aug-16 03:12N 53°20' W 002°45'0 0.0
2017-Aug-16 02:57N 53°20' W 002°45'0 0.0
2017-Aug-16 02:18N 53°20' W 002°45'0 0.0
2017-Aug-15 21:43N 53°20' W 002°45'0 0.0
2017-Aug-15 21:30N 53°20' W 002°45'0 0.0
2017-Aug-15 20:57N 53°20' W 002°45'0 0.0
2017-Aug-15 20:27N 53°20' W 002°45'0 0.0
2017-Aug-15 16:34N 53°20' W 002°45'0 0.0
2017-Aug-15 12:24N 53°20' W 002°45'0 0.0
2017-Aug-15 10:11N 53°20' W 002°45'0 0.0
2017-Aug-15 09:04N 53°20' W 002°45'0 0.0
2017-Aug-15 07:21N 53°20' W 002°45'0 0.0
2017-Aug-15 06:45N 53°20' W 002°45'0 0.0
2017-Aug-15 06:21N 53°20' W 002°45'0 0.0
2017-Aug-15 03:08N 53°20' W 002°45'0 0.0
2017-Aug-15 02:56N 53°20' W 002°45'0 0.0
2017-Aug-15 02:10N 53°20' W 002°45'0 0.0
2017-Aug-15 01:07N 53°20' W 002°45'0 0.0
2017-Aug-15 00:40N 53°20' W 002°45'0 0.0
2017-Aug-14 20:26N 53°20' W 002°45'0 0.0
2017-Aug-14 19:59N 53°20' W 002°45'0 0.0
2017-Aug-14 18:35N 53°20' W 002°45'0 0.0
2017-Aug-14 18:28N 53°20' W 002°45'0 0.1
2017-Aug-14 17:58N 53°20' W 002°45'2 4.0
2017-Aug-14 17:26N 53°18' W 002°46'3 6.1
2017-Aug-14 16:59N 53°17' W 002°50'2 4.5
2017-Aug-14 16:30N 53°18' W 002°54'2 4.6
2017-Aug-14 15:58N 53°19' W 002°57'0 1.0
2017-Aug-14 15:29N 53°20' W 002°57'3 6.9
2017-Aug-14 15:00N 53°23' W 002°60'5 9.2
2017-Aug-14 14:27N 53°27' W 003°03'511.6
2017-Aug-14 14:00N 53°32' W 003°08'610.8
2017-Aug-14 13:28N 53°31' W 003°18'2 5.3
2017-Aug-14 13:00N 53°31' W 003°22'1 2.9
2017-Aug-14 12:30N 53°31' W 003°24'2 4.3
2017-Aug-14 11:58N 53°31' W 003°28'2 5.0
2017-Aug-14 11:30N 53°31' W 003°32'3 4.8
2017-Aug-14 10:58N 53°31' W 003°36'2 5.1
2017-Aug-14 10:30N 53°31' W 003°40'3 5.3
2017-Aug-14 10:00N 53°31' W 003°45'2 4.9
2017-Aug-14 09:30N 53°31' W 003°49'  
2017-Aug-11 00:38N 40°54' W 009°50'1 8.9
2017-Aug-11 00:30N 40°53' W 009°50'5 8.9
2017-Aug-10 23:59N 40°48' W 009°50'4 9.0
2017-Aug-10 23:30N 40°44' W 009°49'4 8.9
2017-Aug-10 23:00N 40°40' W 009°49'4 8.8
2017-Aug-10 22:30N 40°35' W 009°49'5 9.2
2017-Aug-10 22:00N 40°30' W 009°49'8 9.2
2017-Aug-10 21:10N 40°23' W 009°49'2 9.1
2017-Aug-10 21:00N 40°21' W 009°49'5 9.2
2017-Aug-10 20:30N 40°17' W 009°50'5 9.3
2017-Aug-10 20:00N 40°12' W 009°50'5 9.3
2017-Aug-10 19:30N 40°07' W 009°50'4 9.1
2017-Aug-10 19:00N 40°03' W 009°50'5 9.3
2017-Aug-10 18:30N 39°58' W 009°50'5 9.1
2017-Aug-10 18:00N 39°54' W 009°50'5 9.1
2017-Aug-10 17:30N 39°49' W 009°50'4 8.9
2017-Aug-10 17:00N 39°45' W 009°50'4 9.0
2017-Aug-10 16:30N 39°40' W 009°50'5 8.9
2017-Aug-10 16:00N 39°36' W 009°50'4 8.7
2017-Aug-10 15:30N 39°31' W 009°50'4 8.6
2017-Aug-10 15:00N 39°27' W 009°50'4 8.8
2017-Aug-10 14:30N 39°23' W 009°50'4 8.5
2017-Aug-10 14:00N 39°18' W 009°50'4 8.8
2017-Aug-10 13:31N 39°14' W 009°50'4 8.6
2017-Aug-10 13:00N 39°10' W 009°50'4 8.4
2017-Aug-10 12:30N 39°05' W 009°50'4 8.9
2017-Aug-10 12:00N 39°01' W 009°50'4 8.8
2017-Aug-10 11:30N 38°57' W 009°51'4 8.7
2017-Aug-10 11:00N 38°52' W 009°51'4 8.5
2017-Aug-10 10:30N 38°48' W 009°51'4 8.5
2017-Aug-10 10:00N 38°44' W 009°51'4 8.6
2017-Aug-10 09:30N 38°39' W 009°50'4 8.6
2017-Aug-10 09:00N 38°35' W 009°49'4 8.6
2017-Aug-10 08:30N 38°31' W 009°47'4 8.9
2017-Aug-10 08:00N 38°27' W 009°46'4 8.7
2017-Aug-10 07:30N 38°23' W 009°45'4 8.4
2017-Aug-10 07:00N 38°18' W 009°44'4 8.8
2017-Aug-10 06:30N 38°14' W 009°42'4 8.6
2017-Aug-10 06:00N 38°10' W 009°41'4 8.1
2017-Aug-10 05:30N 38°06' W 009°39'4 7.7
2017-Aug-10 05:00N 38°02' W 009°38'4 7.9
2017-Aug-10 04:30N 37°59' W 009°37'4 7.2
2017-Aug-10 04:01N 37°55' W 009°36'4 7.1
2017-Aug-10 03:30N 37°52' W 009°35'3 6.6
2017-Aug-10 03:00N 37°48' W 009°34'3 7.0
2017-Aug-10 02:30N 37°45' W 009°33'3 6.7
2017-Aug-10 02:00N 37°42' W 009°33'  
Track history (hours):
 
Tides and Currents Weather Stations Pressure Air Temp Water Temp Dewpoint Dewpoint Depression Visibility Wind Speed Wind Dir Waves Ship Positions

Flinterborg

Last reported at 2017-Aug-20 01:42 UTC. Time now 2017-Aug-20 04:06 UTC.
Position N 53°33' W 003°53'.

Length 111 m; draft 3.8 m.

Type: Ship. MMSI: 245433000.

Date/timePositionNaut miles runAvg speedWind from/ knotsBaromVisibWave heightAir tempDewpointWater temp
2017-Aug-20 01:42N 53°33' W 003°53'312.3
2017-Aug-20 01:29N 53°33' W 003°49'612.2
2017-Aug-20 00:59N 53°33' W 003°39'612.2
2017-Aug-20 00:29N 53°33' W 003°28'612.3
2017-Aug-19 23:59N 53°32' W 003°18'5 9.1
2017-Aug-19 23:26N 53°32' W 003°10'612.6
2017-Aug-19 22:59N 53°28' W 003°03'713.6
2017-Aug-19 22:30N 53°22' W 002°58'3 5.2
2017-Aug-19 21:59N 53°19' W 002°57'1 2.7
2017-Aug-19 21:30N 53°18' W 002°55'3 5.0
2017-Aug-19 21:00N 53°17' W 002°52'3 5.7
2017-Aug-19 20:27N 53°18' W 002°47'2 5.2
2017-Aug-19 19:58N 53°20' W 002°45'0 0.1
2017-Aug-19 19:28N 53°20' W 002°45'0 0.0
2017-Aug-19 11:09N 53°20' W 002°45'0 0.0
2017-Aug-19 10:42N 53°20' W 002°45'0 0.0
2017-Aug-19 06:49N 53°20' W 002°45'0 0.0
2017-Aug-19 00:59N 53°20' W 002°45'0 0.0
2017-Aug-18 23:10N 53°20' W 002°45'0 0.0
2017-Aug-18 20:15N 53°20' W 002°45'0 0.0
2017-Aug-18 11:47N 53°20' W 002°45'0 0.0
2017-Aug-18 10:35N 53°20' W 002°45'0 0.0
2017-Aug-18 10:14N 53°20' W 002°45'0 0.0
2017-Aug-18 05:39N 53°20' W 002°45'0 0.0
2017-Aug-18 01:52N 53°20' W 002°45'0 0.0
2017-Aug-17 13:16N 53°20' W 002°45'0 0.0
2017-Aug-17 12:40N 53°20' W 002°45'0 0.0
2017-Aug-17 12:25N 53°20' W 002°45'0 0.0
2017-Aug-17 11:52N 53°20' W 002°45'0 0.0
2017-Aug-17 10:15N 53°20' W 002°45'0 0.0
2017-Aug-16 23:56N 53°20' W 002°45'0 0.0
2017-Aug-16 14:16N 53°20' W 002°45'0 0.2
2017-Aug-16 13:42N 53°20' W 002°45'0 0.1
2017-Aug-16 13:19N 53°20' W 002°45'0 0.0
2017-Aug-16 09:24N 53°20' W 002°45'0 0.0
2017-Aug-16 03:12N 53°20' W 002°45'0 0.0
2017-Aug-16 02:57N 53°20' W 002°45'0 0.0
2017-Aug-16 02:18N 53°20' W 002°45'0 0.0
2017-Aug-15 21:43N 53°20' W 002°45'0 0.0
2017-Aug-15 21:30N 53°20' W 002°45'0 0.0
2017-Aug-15 20:57N 53°20' W 002°45'0 0.0
2017-Aug-15 20:27N 53°20' W 002°45'0 0.0
2017-Aug-15 16:34N 53°20' W 002°45'0 0.0
2017-Aug-15 12:24N 53°20' W 002°45'0 0.0
2017-Aug-15 10:11N 53°20' W 002°45'0 0.0
2017-Aug-15 09:04N 53°20' W 002°45'0 0.0
2017-Aug-15 07:21N 53°20' W 002°45'0 0.0
2017-Aug-15 06:45N 53°20' W 002°45'0 0.0
2017-Aug-15 06:21N 53°20' W 002°45'0 0.0
2017-Aug-15 03:08N 53°20' W 002°45'0 0.0
2017-Aug-15 02:56N 53°20' W 002°45'0 0.0
2017-Aug-15 02:10N 53°20' W 002°45'0 0.0
2017-Aug-15 01:07N 53°20' W 002°45'0 0.0
2017-Aug-15 00:40N 53°20' W 002°45'0 0.0
2017-Aug-14 20:26N 53°20' W 002°45'0 0.0
2017-Aug-14 19:59N 53°20' W 002°45'0 0.0
2017-Aug-14 18:35N 53°20' W 002°45'0 0.0
2017-Aug-14 18:28N 53°20' W 002°45'0 0.1
2017-Aug-14 17:58N 53°20' W 002°45'2 4.0
2017-Aug-14 17:26N 53°18' W 002°46'3 6.1
2017-Aug-14 16:59N 53°17' W 002°50'2 4.5
2017-Aug-14 16:30N 53°18' W 002°54'2 4.6
2017-Aug-14 15:58N 53°19' W 002°57'0 1.0
2017-Aug-14 15:29N 53°20' W 002°57'3 6.9
2017-Aug-14 15:00N 53°23' W 002°60'5 9.2
2017-Aug-14 14:27N 53°27' W 003°03'511.6
2017-Aug-14 14:00N 53°32' W 003°08'610.8
2017-Aug-14 13:28N 53°31' W 003°18'2 5.3
2017-Aug-14 13:00N 53°31' W 003°22'1 2.9
2017-Aug-14 12:30N 53°31' W 003°24'2 4.3
2017-Aug-14 11:58N 53°31' W 003°28'2 5.0
2017-Aug-14 11:30N 53°31' W 003°32'3 4.8
2017-Aug-14 10:58N 53°31' W 003°36'2 5.1
2017-Aug-14 10:30N 53°31' W 003°40'3 5.3
2017-Aug-14 10:00N 53°31' W 003°45'2 4.9
2017-Aug-14 09:30N 53°31' W 003°49'  
2017-Aug-11 00:38N 40°54' W 009°50'1 8.9
2017-Aug-11 00:30N 40°53' W 009°50'5 8.9
2017-Aug-10 23:59N 40°48' W 009°50'4 9.0
2017-Aug-10 23:30N 40°44' W 009°49'4 8.9
2017-Aug-10 23:00N 40°40' W 009°49'4 8.8
2017-Aug-10 22:30N 40°35' W 009°49'5 9.2
2017-Aug-10 22:00N 40°30' W 009°49'8 9.2
2017-Aug-10 21:10N 40°23' W 009°49'2 9.1
2017-Aug-10 21:00N 40°21' W 009°49'5 9.2
2017-Aug-10 20:30N 40°17' W 009°50'5 9.3
2017-Aug-10 20:00N 40°12' W 009°50'5 9.3
2017-Aug-10 19:30N 40°07' W 009°50'4 9.1
2017-Aug-10 19:00N 40°03' W 009°50'5 9.3
2017-Aug-10 18:30N 39°58' W 009°50'5 9.1
2017-Aug-10 18:00N 39°54' W 009°50'5 9.1
2017-Aug-10 17:30N 39°49' W 009°50'4 8.9
2017-Aug-10 17:00N 39°45' W 009°50'4 9.0
2017-Aug-10 16:30N 39°40' W 009°50'5 8.9
2017-Aug-10 16:00N 39°36' W 009°50'4 8.7
2017-Aug-10 15:30N 39°31' W 009°50'4 8.6
2017-Aug-10 15:00N 39°27' W 009°50'4 8.8
2017-Aug-10 14:30N 39°23' W 009°50'4 8.5
2017-Aug-10 14:00N 39°18' W 009°50'4 8.8
2017-Aug-10 13:31N 39°14' W 009°50'4 8.6
2017-Aug-10 13:00N 39°10' W 009°50'4 8.4
2017-Aug-10 12:30N 39°05' W 009°50'4 8.9
2017-Aug-10 12:00N 39°01' W 009°50'4 8.8
2017-Aug-10 11:30N 38°57' W 009°51'4 8.7
2017-Aug-10 11:00N 38°52' W 009°51'4 8.5
2017-Aug-10 10:30N 38°48' W 009°51'4 8.5
2017-Aug-10 10:00N 38°44' W 009°51'4 8.6
2017-Aug-10 09:30N 38°39' W 009°50'4 8.6
2017-Aug-10 09:00N 38°35' W 009°49'4 8.6
2017-Aug-10 08:30N 38°31' W 009°47'4 8.9
2017-Aug-10 08:00N 38°27' W 009°46'4 8.7
2017-Aug-10 07:30N 38°23' W 009°45'4 8.4
2017-Aug-10 07:00N 38°18' W 009°44'4 8.8
2017-Aug-10 06:30N 38°14' W 009°42'4 8.6
2017-Aug-10 06:00N 38°10' W 009°41'4 8.1
2017-Aug-10 05:30N 38°06' W 009°39'4 7.7
2017-Aug-10 05:00N 38°02' W 009°38'4 7.9
2017-Aug-10 04:30N 37°59' W 009°37'4 7.2
2017-Aug-10 04:01N 37°55' W 009°36'4 7.1
2017-Aug-10 03:30N 37°52' W 009°35'3 6.6
2017-Aug-10 03:00N 37°48' W 009°34'3 7.0
2017-Aug-10 02:30N 37°45' W 009°33'3 6.7
2017-Aug-10 02:00N 37°42' W 009°33'  

Dump ship's entire track history